createdAt,value
2017-04-29T00:00:58.626Z,0
2017-04-29T00:01:58.648Z,0
2017-04-29T00:02:58.365Z,0
2017-04-29T00:03:58.695Z,0
2017-04-29T00:06:13.342Z,0
2017-04-29T00:07:58.771Z,0
2017-04-29T00:08:58.793Z,0
2017-04-29T00:09:58.809Z,0
2017-04-29T00:10:58.830Z,0
2017-04-29T00:11:58.842Z,0
2017-04-29T00:12:58.869Z,0
2017-04-29T00:13:58.890Z,0
2017-04-29T00:14:58.910Z,0
2017-04-29T00:15:58.922Z,0
2017-04-29T00:17:13.558Z,0
2017-04-29T00:18:13.584Z,0
2017-04-29T00:19:13.602Z,0
2017-04-29T00:20:28.233Z,0
2017-04-29T00:20:58.719Z,0
2017-04-29T00:22:13.658Z,0
2017-04-29T00:22:59.060Z,0
2017-04-29T00:24:59.143Z,0
2017-04-29T00:26:58.832Z,0
2017-04-29T00:28:13.778Z,0
2017-04-29T00:28:59.180Z,0
2017-04-29T00:29:59.200Z,0
2017-04-29T00:30:59.223Z,0
2017-04-29T00:32:28.473Z,0
2017-04-29T00:33:13.570Z,0
2017-04-29T00:33:59.278Z,0
2017-04-29T00:34:59.303Z,0
2017-04-29T00:35:59.324Z,0
2017-04-29T00:37:13.950Z,0
2017-04-29T00:37:59.358Z,0
2017-04-29T00:40:13.400Z,0
2017-04-29T00:41:59.434Z,0
2017-04-29T00:42:59.455Z,0
2017-04-29T00:44:59.492Z,0
2017-04-29T00:46:59.534Z,0
2017-04-29T00:47:59.550Z,0
2017-04-29T00:48:59.281Z,0
2017-04-29T00:50:14.206Z,0
2017-04-29T00:50:59.312Z,0
2017-04-29T00:51:59.632Z,0
2017-04-29T00:52:59.650Z,0
2017-04-29T00:53:59.683Z,0
2017-04-29T00:54:59.387Z,0
2017-04-29T00:56:14.324Z,0
2017-04-29T00:56:59.424Z,0
2017-04-29T00:57:59.755Z,0
2017-04-29T00:58:59.815Z,0
2017-04-29T01:00:14.405Z,0
2017-04-29T01:01:59.824Z,0
2017-04-29T01:02:59.846Z,0
2017-04-29T01:03:59.873Z,0
2017-04-29T01:04:59.882Z,0
2017-04-29T01:06:14.517Z,0
2017-04-29T01:06:59.923Z,0
2017-04-29T01:07:59.943Z,0
2017-04-29T01:09:14.275Z,0
2017-04-29T01:10:59.995Z,0
2017-04-29T01:12:14.029Z,0
2017-04-29T01:13:00.044Z,0
2017-04-29T01:13:59.758Z,0
2017-04-29T01:15:00.081Z,0
2017-04-29T01:16:00.105Z,0
2017-04-29T01:17:14.434Z,0
2017-04-29T01:18:00.156Z,0
2017-04-29T01:19:00.160Z,0
2017-04-29T01:20:00.182Z,0
2017-04-29T01:21:00.199Z,0
2017-04-29T01:22:14.526Z,0
2017-04-29T01:23:14.856Z,0
2017-04-29T01:24:00.256Z,0
2017-04-29T01:25:14.892Z,0
2017-04-29T01:26:00.292Z,0
2017-04-29T01:27:14.935Z,0
2017-04-29T01:28:00.038Z,0
2017-04-29T01:29:00.353Z,0
2017-04-29T01:32:00.413Z,0
2017-04-29T01:33:15.053Z,0
2017-04-29T01:34:00.458Z,0
2017-04-29T01:35:00.485Z,0
2017-04-29T01:36:00.489Z,0
2017-04-29T01:37:00.516Z,0
2017-04-29T01:38:00.534Z,0
2017-04-29T01:39:00.247Z,0
2017-04-29T01:40:15.196Z,0
2017-04-29T01:41:00.589Z,0
2017-04-29T01:42:00.611Z,0
2017-04-29T01:43:00.633Z,0
2017-04-29T01:44:00.654Z,0
2017-04-29T01:45:00.671Z,0
2017-04-29T01:46:00.388Z,0
2017-04-29T01:47:00.407Z,0
2017-04-29T01:48:00.741Z,0
2017-04-29T01:49:00.750Z,0
2017-04-29T01:50:00.769Z,0
2017-04-29T01:51:00.792Z,0
2017-04-29T01:52:00.807Z,0
2017-04-29T01:53:00.526Z,0
2017-04-29T01:54:15.466Z,0
2017-04-29T01:55:15.181Z,0
2017-04-29T01:56:00.580Z,0
2017-04-29T01:57:00.920Z,0
2017-04-29T01:59:15.567Z,0
2017-04-29T02:00:15.588Z,0
2017-04-29T02:01:00.987Z,0
2017-04-29T02:02:01.008Z,0
2017-04-29T02:03:01.028Z,0
2017-04-29T02:04:01.045Z,0
2017-04-29T02:05:01.073Z,0
2017-04-29T02:06:00.785Z,0
2017-04-29T02:07:15.717Z,0
2017-04-29T02:08:01.124Z,0
2017-04-29T02:09:01.141Z,0
2017-04-29T02:10:01.162Z,0
2017-04-29T02:11:01.183Z,0
2017-04-29T02:12:01.203Z,0
2017-04-29T02:13:01.228Z,0
2017-04-29T02:14:01.246Z,0
2017-04-29T02:15:15.571Z,0
2017-04-29T02:16:01.285Z,0
2017-04-29T02:17:15.616Z,0
2017-04-29T02:18:01.319Z,0
2017-04-29T02:19:01.351Z,0
2017-04-29T02:20:15.675Z,0
2017-04-29T02:21:01.377Z,0
2017-04-29T02:22:15.405Z,0
2017-04-29T02:23:01.420Z,0
2017-04-29T02:24:01.137Z,0
2017-04-29T02:25:30.690Z,0
2017-04-29T02:26:01.475Z,0
2017-04-29T02:27:01.498Z,0
2017-04-29T02:28:01.520Z,0
2017-04-29T02:30:01.559Z,0
2017-04-29T02:32:01.592Z,0
2017-04-29T02:33:01.614Z,0
2017-04-29T02:34:01.332Z,0
2017-04-29T02:35:01.651Z,0
2017-04-29T02:36:01.672Z,0
2017-04-29T02:37:01.386Z,0
2017-04-29T02:38:01.724Z,0
2017-04-29T02:39:16.353Z,0
2017-04-29T02:40:16.367Z,0
2017-04-29T02:41:01.770Z,0
2017-04-29T02:42:01.483Z,0
2017-04-29T02:43:16.422Z,0
2017-04-29T02:44:01.830Z,0
2017-04-29T02:45:01.855Z,0
2017-04-29T02:46:01.871Z,0
2017-04-29T02:47:16.510Z,0
2017-04-29T02:48:16.231Z,0
2017-04-29T02:49:01.931Z,0
2017-04-29T02:50:01.948Z,0
2017-04-29T02:51:01.660Z,0
2017-04-29T02:52:02.030Z,0
2017-04-29T02:53:01.707Z,0
2017-04-29T02:54:16.648Z,0
2017-04-29T02:55:02.045Z,0
2017-04-29T02:56:02.066Z,0
2017-04-29T02:57:02.089Z,0
2017-04-29T02:58:02.106Z,0
2017-04-29T02:59:02.125Z,0
2017-04-29T03:00:02.145Z,0
2017-04-29T03:01:02.160Z,0
2017-04-29T03:02:16.500Z,0
2017-04-29T03:03:02.205Z,0
2017-04-29T03:04:02.221Z,0
2017-04-29T03:05:02.248Z,0
2017-04-29T03:06:02.258Z,0
2017-04-29T03:07:01.978Z,0
2017-04-29T03:08:02.301Z,0
2017-04-29T03:09:02.328Z,0
2017-04-29T03:10:02.039Z,0
2017-04-29T03:11:02.355Z,0
2017-04-29T03:12:02.376Z,0
2017-04-29T03:13:02.399Z,0
2017-04-29T03:14:17.035Z,0
2017-04-29T03:15:17.053Z,0
2017-04-29T03:16:02.152Z,0
2017-04-29T03:17:02.476Z,0
2017-04-29T03:18:02.498Z,0
2017-04-29T03:19:17.136Z,0
2017-04-29T03:21:02.552Z,0
2017-04-29T03:22:02.572Z,0
2017-04-29T03:23:02.593Z,0
2017-04-29T03:24:02.620Z,0
2017-04-29T03:25:02.636Z,0
2017-04-29T03:26:02.650Z,0
2017-04-29T03:27:02.667Z,0
2017-04-29T03:28:02.690Z,0
2017-04-29T03:30:02.727Z,0
2017-04-29T03:31:02.749Z,0
2017-04-29T03:32:02.768Z,0
2017-04-29T03:33:02.797Z,0
2017-04-29T03:34:17.455Z,0
2017-04-29T03:35:02.829Z,0
2017-04-29T03:36:02.845Z,0
2017-04-29T03:37:02.863Z,0
2017-04-29T03:38:17.502Z,0
2017-04-29T03:39:02.921Z,0
2017-04-29T03:40:02.929Z,0
2017-04-29T03:41:17.559Z,0
2017-04-29T03:42:02.961Z,0
2017-04-29T03:43:02.985Z,0
2017-04-29T03:44:17.624Z,0
2017-04-29T03:45:03.025Z,0
2017-04-29T03:46:17.657Z,0
2017-04-29T03:47:03.072Z,0
2017-04-29T03:50:17.732Z,0
2017-04-29T03:51:03.168Z,0
2017-04-29T03:54:17.549Z,5
2017-04-29T03:55:03.214Z,5
2017-04-29T03:56:03.236Z,5
2017-04-29T03:57:03.256Z,5
2017-04-29T03:58:03.275Z,5
2017-04-29T03:59:03.293Z,5
2017-04-29T04:00:03.310Z,5
2017-04-29T04:01:17.646Z,5
2017-04-29T04:02:17.967Z,5
2017-04-29T04:03:03.071Z,5
2017-04-29T04:04:18.006Z,5
2017-04-29T04:06:18.047Z,5
2017-04-29T04:07:03.146Z,5
2017-04-29T04:08:03.467Z,5
2017-04-29T04:09:03.492Z,5
2017-04-29T04:10:03.513Z,5
2017-04-29T04:11:03.527Z,5
2017-04-29T04:12:03.551Z,5
2017-04-29T04:13:03.571Z,10
2017-04-29T04:14:03.586Z,10
2017-04-29T04:15:18.220Z,10
2017-04-29T04:16:03.628Z,10
2017-04-29T04:17:18.260Z,15
2017-04-29T04:19:03.381Z,15
2017-04-29T04:20:03.706Z,15
2017-04-29T04:22:18.060Z,15
2017-04-29T04:23:18.375Z,20
2017-04-29T04:24:03.823Z,20
2017-04-29T04:25:03.802Z,25
2017-04-29T04:26:03.822Z,25
2017-04-29T04:28:03.863Z,20
2017-04-29T04:29:03.882Z,20
2017-04-29T04:30:03.601Z,20
2017-04-29T04:31:18.231Z,20
2017-04-29T04:33:18.577Z,20
2017-04-29T04:34:03.981Z,20
2017-04-29T04:36:18.634Z,15
2017-04-29T04:38:04.058Z,15
2017-04-29T04:39:04.125Z,20
2017-04-29T04:40:04.101Z,20
2017-04-29T04:41:04.122Z,20
2017-04-29T04:43:04.159Z,25
2017-04-29T04:44:04.175Z,30
2017-04-29T04:45:04.205Z,30
2017-04-29T04:46:04.216Z,35
2017-04-29T04:47:18.849Z,35
2017-04-29T04:48:18.876Z,35
2017-04-29T04:49:04.319Z,35
2017-04-29T04:50:18.912Z,40
2017-04-29T04:51:04.319Z,35
2017-04-29T04:52:04.336Z,40
2017-04-29T04:53:04.356Z,40
2017-04-29T04:54:04.376Z,45
2017-04-29T04:55:04.395Z,55
2017-04-29T04:56:04.415Z,60
2017-04-29T04:58:04.453Z,75
2017-04-29T04:59:04.476Z,85
2017-04-29T05:00:19.108Z,90
2017-04-29T05:01:04.516Z,100
2017-04-29T05:02:04.534Z,110
2017-04-29T05:03:33.786Z,125
2017-04-29T05:04:04.571Z,130
2017-04-29T05:05:19.208Z,155
2017-04-29T05:06:04.612Z,275
2017-04-29T05:07:19.249Z,355
2017-04-29T05:08:04.659Z,230
2017-04-29T05:10:18.707Z,410
2017-04-29T05:11:04.408Z,485
2017-04-29T05:12:04.733Z,505
2017-04-29T05:13:04.760Z,490
2017-04-29T05:14:19.396Z,195
2017-04-29T05:16:04.820Z,220
2017-04-29T05:17:04.842Z,255
2017-04-29T05:18:19.490Z,220
2017-04-29T05:19:04.588Z,245
2017-04-29T05:20:04.907Z,220
2017-04-29T05:21:34.161Z,195
2017-04-29T05:22:04.960Z,200
2017-04-29T05:23:19.600Z,305
2017-04-29T05:24:19.612Z,405
2017-04-29T05:25:19.633Z,210
2017-04-29T05:26:19.670Z,230
2017-04-29T05:27:19.674Z,225
2017-04-29T05:28:04.781Z,265
2017-04-29T05:29:04.804Z,395
2017-04-29T05:30:05.132Z,630
2017-04-29T05:31:05.154Z,700
2017-04-29T05:32:05.173Z,575
2017-04-29T05:33:05.199Z,360
2017-04-29T05:34:04.918Z,220
2017-04-29T05:35:05.257Z,280
2017-04-29T05:36:19.888Z,700
2017-04-29T05:37:04.988Z,865
2017-04-29T05:38:05.316Z,845
2017-04-29T05:39:05.340Z,820
2017-04-29T05:40:05.364Z,750
2017-04-29T05:41:20.002Z,565
2017-04-29T05:42:05.421Z,765
2017-04-29T05:44:05.472Z,830
2017-04-29T05:45:05.489Z,955
2017-04-29T05:46:20.129Z,935
2017-04-29T05:47:05.544Z,910
2017-04-29T05:48:05.563Z,955
2017-04-29T05:49:20.230Z,455
2017-04-29T05:50:05.613Z,525
2017-04-29T05:51:05.639Z,760
2017-04-29T05:52:05.664Z,350
2017-04-29T05:53:05.691Z,925
2017-04-29T05:54:20.337Z,690
2017-04-29T05:55:05.743Z,425
2017-04-29T05:57:20.411Z,670
2017-04-29T05:58:05.829Z,620
2017-04-29T05:59:05.855Z,310
2017-04-29T06:00:05.578Z,305
2017-04-29T06:01:05.910Z,260
2017-04-29T06:02:05.932Z,360
2017-04-29T06:03:05.958Z,130
2017-04-29T06:04:05.986Z,100
2017-04-29T06:05:35.249Z,95
2017-04-29T06:06:20.656Z,85
2017-04-29T06:07:20.679Z,70
2017-04-29T06:09:20.734Z,50
2017-04-29T06:10:06.145Z,45
2017-04-29T06:11:06.168Z,40
2017-04-29T06:12:20.505Z,40
2017-04-29T06:13:05.919Z,40
2017-04-29T06:14:05.935Z,35
2017-04-29T06:15:06.272Z,40
2017-04-29T06:16:06.286Z,45
2017-04-29T06:17:06.016Z,45
2017-04-29T06:18:06.341Z,50
2017-04-29T06:19:06.070Z,50
2017-04-29T06:20:06.393Z,50
2017-04-29T06:21:06.416Z,45
2017-04-29T06:22:21.050Z,45
2017-04-29T06:23:06.456Z,40
2017-04-29T06:24:06.175Z,45
2017-04-29T06:25:06.537Z,45
2017-04-29T06:26:06.528Z,55
2017-04-29T06:27:06.548Z,65
2017-04-29T06:28:06.574Z,75
2017-04-29T06:29:06.599Z,80
2017-04-29T06:30:21.239Z,85
2017-04-29T06:31:06.643Z,90
2017-04-29T06:32:06.362Z,90
2017-04-29T06:33:06.696Z,90
2017-04-29T06:34:21.327Z,90
2017-04-29T06:35:06.736Z,80
2017-04-29T06:36:06.754Z,75
2017-04-29T06:37:06.169Z,75
2017-04-29T06:38:06.799Z,80
2017-04-29T06:39:06.827Z,85
2017-04-29T06:40:06.840Z,95
2017-04-29T06:41:06.907Z,105
2017-04-29T06:42:21.502Z,120
2017-04-29T06:43:06.916Z,150
2017-04-29T06:44:21.549Z,210
2017-04-29T06:45:06.954Z,250
2017-04-29T06:46:06.976Z,300
2017-04-29T06:48:36.259Z,375
2017-04-29T06:49:07.043Z,390
2017-04-29T06:50:06.766Z,620
2017-04-29T06:51:07.085Z,360
2017-04-29T06:52:07.114Z,770
2017-04-29T06:53:07.135Z,870
2017-04-29T06:54:07.161Z,580
2017-04-29T06:55:06.880Z,660
2017-04-29T06:56:07.204Z,595
2017-04-29T06:57:07.243Z,595
2017-04-29T06:58:07.251Z,365
2017-04-29T06:59:07.280Z,365
2017-04-29T07:00:21.918Z,1010
2017-04-29T07:01:07.030Z,440
2017-04-29T07:02:07.350Z,420
2017-04-29T07:03:07.385Z,1335
2017-04-29T07:04:07.406Z,430
2017-04-29T07:05:07.425Z,985
2017-04-29T07:06:07.456Z,335
2017-04-29T07:07:07.488Z,490
2017-04-29T07:08:07.205Z,345
2017-04-29T07:09:07.526Z,540
2017-04-29T07:10:07.253Z,1320
2017-04-29T07:11:07.584Z,1200
2017-04-29T07:12:22.250Z,1125
2017-04-29T07:13:07.633Z,1075
2017-04-29T07:14:07.660Z,1055
2017-04-29T07:15:07.382Z,940
2017-04-29T07:16:22.026Z,1080
2017-04-29T07:17:07.744Z,1055
2017-04-29T07:18:07.771Z,1060
2017-04-29T07:19:07.804Z,1100
2017-04-29T07:20:07.827Z,1110
2017-04-29T07:21:07.851Z,320
2017-04-29T07:22:22.548Z,1060
2017-04-29T07:23:07.908Z,290
2017-04-29T07:24:07.944Z,295
2017-04-29T07:25:07.669Z,1040
2017-04-29T07:26:07.692Z,1175
2017-04-29T07:27:22.640Z,1245
2017-04-29T07:28:08.056Z,1215
2017-04-29T07:29:08.087Z,1185
2017-04-29T07:30:08.119Z,1190
2017-04-29T07:31:07.841Z,1155
2017-04-29T07:32:22.791Z,895
2017-04-29T07:33:08.200Z,830
2017-04-29T07:34:08.238Z,715
2017-04-29T07:35:08.266Z,500
2017-04-29T07:36:08.287Z,660
2017-04-29T07:37:08.017Z,1040
2017-04-29T07:38:08.047Z,1165
2017-04-29T07:39:23.001Z,1195
2017-04-29T07:40:23.030Z,1135
2017-04-29T07:41:23.058Z,1135
2017-04-29T07:42:08.168Z,1115
2017-04-29T07:43:08.502Z,1110
2017-04-29T07:44:23.152Z,1035
2017-04-29T07:45:08.568Z,1075
2017-04-29T07:46:08.600Z,1055
2017-04-29T07:47:23.243Z,1135
2017-04-29T07:49:08.691Z,1045
2017-04-29T07:50:08.728Z,810
2017-04-29T07:51:08.447Z,1145
2017-04-29T07:52:08.487Z,805
2017-04-29T07:53:08.209Z,540
2017-04-29T07:54:08.543Z,1105
2017-04-29T07:55:08.877Z,440
2017-04-29T07:56:08.607Z,1090
2017-04-29T07:57:08.937Z,745
2017-04-29T07:58:08.978Z,1090
2017-04-29T07:59:09.004Z,795
2017-04-29T08:00:09.068Z,1020
2017-04-29T08:01:08.763Z,985
2017-04-29T08:02:09.096Z,730
2017-04-29T08:03:09.129Z,285
2017-04-29T08:04:08.856Z,230
2017-04-29T08:05:09.192Z,205
2017-04-29T08:06:09.221Z,195
2017-04-29T08:07:09.251Z,185
2017-04-29T08:08:09.283Z,170
2017-04-29T08:09:09.315Z,160
2017-04-29T08:10:09.347Z,150
2017-04-29T08:11:09.371Z,140
2017-04-29T08:12:09.401Z,125
2017-04-29T08:13:09.442Z,115
2017-04-29T08:14:09.462Z,105
2017-04-29T08:15:24.135Z,95
2017-04-29T08:16:23.828Z,85
2017-04-29T08:17:09.557Z,80
2017-04-29T08:18:09.271Z,75
2017-04-29T08:19:24.219Z,70
2017-04-29T08:20:09.631Z,70
2017-04-29T08:21:09.656Z,75
2017-04-29T08:22:09.679Z,75
2017-04-29T08:23:09.407Z,70
2017-04-29T08:24:09.736Z,70
2017-04-29T08:25:24.379Z,70
2017-04-29T08:26:09.481Z,75
2017-04-29T08:27:09.509Z,85
2017-04-29T08:28:24.158Z,100
2017-04-29T08:29:24.480Z,115
2017-04-29T08:30:09.282Z,120
2017-04-29T08:31:09.913Z,135
2017-04-29T08:32:09.939Z,150
2017-04-29T08:33:24.582Z,210
2017-04-29T08:34:09.684Z,180
2017-04-29T08:35:24.329Z,205
2017-04-29T08:36:10.040Z,290
2017-04-29T08:37:10.064Z,215
2017-04-29T08:38:10.093Z,195
2017-04-29T08:39:10.123Z,180
2017-04-29T08:41:10.177Z,145
2017-04-29T08:42:10.195Z,130
2017-04-29T08:43:24.838Z,105
2017-04-29T08:44:09.947Z,95
2017-04-29T08:45:24.883Z,85
2017-04-29T08:46:24.926Z,75
2017-04-29T08:47:10.314Z,70
2017-04-29T08:48:10.037Z,60
2017-04-29T08:49:24.983Z,55
2017-04-29T08:50:09.783Z,55
2017-04-29T08:51:25.028Z,50
2017-04-29T08:52:10.439Z,45
2017-04-29T08:53:10.486Z,45
2017-04-29T08:54:10.237Z,50
2017-04-29T08:56:10.232Z,55
2017-04-29T08:57:10.255Z,55
2017-04-29T08:58:10.589Z,65
2017-04-29T08:59:10.456Z,60
2017-04-29T09:00:10.633Z,65
2017-04-29T09:01:10.660Z,75
2017-04-29T09:02:25.293Z,85
2017-04-29T09:03:10.402Z,90
2017-04-29T09:04:10.425Z,95
2017-04-29T09:05:10.750Z,105
2017-04-29T09:06:25.391Z,110
2017-04-29T09:07:25.429Z,110
2017-04-29T09:08:10.518Z,110
2017-04-29T09:10:10.593Z,105
2017-04-29T09:11:10.898Z,105
2017-04-29T09:12:25.536Z,105
2017-04-29T09:13:10.940Z,105
2017-04-29T09:14:10.689Z,105
2017-04-29T09:15:11.025Z,110
2017-04-29T09:16:11.009Z,110
2017-04-29T09:17:11.067Z,115
2017-04-29T09:18:40.291Z,125
2017-04-29T09:19:11.084Z,130
2017-04-29T09:21:11.127Z,150
2017-04-29T09:23:11.175Z,160
2017-04-29T09:24:11.196Z,170
2017-04-29T09:26:10.973Z,180
2017-04-29T09:28:10.990Z,205
2017-04-29T09:29:11.016Z,205
2017-04-29T09:30:25.651Z,205
2017-04-29T09:31:11.363Z,205
2017-04-29T09:32:25.699Z,195
2017-04-29T09:33:11.416Z,190
2017-04-29T09:34:11.140Z,185
2017-04-29T09:35:11.176Z,180
2017-04-29T09:36:26.098Z,180
2017-04-29T09:37:11.510Z,180
2017-04-29T09:38:25.840Z,180
2017-04-29T09:39:11.555Z,180
2017-04-29T09:40:11.579Z,180
2017-04-29T09:42:11.017Z,185
2017-04-29T09:43:26.269Z,195
2017-04-29T09:44:11.368Z,195
2017-04-29T09:45:26.313Z,200
2017-04-29T09:46:11.457Z,205
2017-04-29T09:47:11.743Z,210
2017-04-29T09:48:11.773Z,215
2017-04-29T09:49:11.795Z,220
2017-04-29T09:50:40.740Z,235
2017-04-29T09:51:11.537Z,235
2017-04-29T09:52:26.476Z,245
2017-04-29T09:53:11.880Z,260
2017-04-29T09:54:26.536Z,260
2017-04-29T09:55:11.930Z,370
2017-04-29T09:56:11.650Z,260
2017-04-29T09:57:11.975Z,260
2017-04-29T09:58:12.002Z,255
2017-04-29T09:59:12.030Z,255
2017-04-29T10:00:12.051Z,255
2017-04-29T10:01:12.077Z,250
2017-04-29T10:02:11.798Z,250
2017-04-29T10:03:12.118Z,250
2017-04-29T10:04:11.852Z,245
2017-04-29T10:05:12.167Z,245
2017-04-29T10:06:12.214Z,250
2017-04-29T10:07:26.836Z,245
2017-04-29T10:08:26.868Z,245
2017-04-29T10:09:12.307Z,245
2017-04-29T10:11:12.317Z,240
2017-04-29T10:12:12.338Z,240
2017-04-29T10:13:12.360Z,240
2017-04-29T10:14:12.083Z,240
2017-04-29T10:15:12.108Z,245
2017-04-29T10:16:12.435Z,250
2017-04-29T10:17:12.466Z,250
2017-04-29T10:18:27.110Z,255
2017-04-29T10:19:12.512Z,255
2017-04-29T10:20:12.229Z,260
2017-04-29T10:21:27.173Z,265
2017-04-29T10:22:26.895Z,265
2017-04-29T10:23:27.227Z,270
2017-04-29T10:24:26.942Z,270
2017-04-29T10:25:12.050Z,270
2017-04-29T10:26:27.291Z,270
2017-04-29T10:29:12.754Z,285
2017-04-29T10:30:12.474Z,280
2017-04-29T10:33:27.468Z,285
2017-04-29T10:34:12.265Z,290
2017-04-29T10:35:12.595Z,285
2017-04-29T10:36:12.618Z,290
2017-04-29T10:37:12.337Z,285
2017-04-29T10:38:12.974Z,285
2017-04-29T10:41:12.442Z,275
2017-04-29T10:42:27.685Z,275
2017-04-29T10:43:27.404Z,275
2017-04-29T10:44:13.147Z,270
2017-04-29T10:45:12.835Z,270
2017-04-29T10:46:13.166Z,270
2017-04-29T10:48:12.914Z,265
2017-04-29T10:49:13.243Z,260
2017-04-29T10:50:13.264Z,260
2017-04-29T10:51:13.291Z,260
2017-04-29T10:52:13.316Z,255
2017-04-29T10:53:13.037Z,250
2017-04-29T10:54:13.369Z,245
2017-04-29T10:55:42.621Z,235
2017-04-29T10:56:13.414Z,235
2017-04-29T10:58:13.166Z,230
2017-04-29T10:59:13.491Z,230
2017-04-29T11:02:13.261Z,220
2017-04-29T11:03:13.586Z,215
2017-04-29T11:04:13.621Z,210
2017-04-29T11:05:13.637Z,205
2017-04-29T11:06:13.657Z,200
2017-04-29T11:07:28.299Z,195
2017-04-29T11:08:13.404Z,195
2017-04-29T11:09:13.439Z,195
2017-04-29T11:10:13.756Z,190
2017-04-29T11:11:13.778Z,190
2017-04-29T11:12:28.422Z,190
2017-04-29T11:13:13.835Z,190
2017-04-29T11:14:13.859Z,190
2017-04-29T11:15:13.884Z,195
2017-04-29T11:17:13.662Z,195
2017-04-29T11:18:13.658Z,195
2017-04-29T11:19:13.979Z,195
2017-04-29T11:20:13.999Z,205
2017-04-29T11:21:13.720Z,220
2017-04-29T11:22:13.744Z,200
2017-04-29T11:23:28.698Z,210
2017-04-29T11:24:14.107Z,210
2017-04-29T11:25:28.734Z,195
2017-04-29T11:26:14.143Z,180
2017-04-29T11:27:13.862Z,235
2017-04-29T11:28:13.895Z,215
2017-04-29T11:30:28.856Z,210
2017-04-29T11:31:14.269Z,210
2017-04-29T11:32:14.293Z,205
2017-04-29T11:33:14.015Z,195
2017-04-29T11:34:28.957Z,195
2017-04-29T11:35:28.686Z,190
2017-04-29T11:36:14.089Z,195
2017-04-29T11:37:14.408Z,195
2017-04-29T11:38:14.136Z,195
2017-04-29T11:39:29.075Z,175
2017-04-29T11:40:14.178Z,160
2017-04-29T11:41:14.202Z,165
2017-04-29T11:43:14.564Z,205
2017-04-29T11:44:14.625Z,150
2017-04-29T11:46:28.938Z,160
2017-04-29T11:47:14.652Z,170
2017-04-29T11:48:14.676Z,180
2017-04-29T11:49:14.095Z,200
2017-04-29T11:51:14.778Z,170
2017-04-29T11:52:14.771Z,170
2017-04-29T11:53:14.832Z,180
2017-04-29T11:54:29.137Z,170
2017-04-29T11:55:29.459Z,165
2017-04-29T11:56:14.562Z,165
2017-04-29T11:57:14.586Z,170
2017-04-29T11:58:14.617Z,165
2017-04-29T11:59:14.643Z,160
2017-04-29T12:00:14.969Z,160
2017-04-29T12:02:14.403Z,150
2017-04-29T12:03:14.736Z,150
2017-04-29T12:04:15.062Z,155
2017-04-29T12:05:29.709Z,150
2017-04-29T12:06:15.101Z,150
2017-04-29T12:07:15.131Z,150
2017-04-29T12:08:14.849Z,150
2017-04-29T12:09:15.219Z,150
2017-04-29T12:10:14.898Z,150
2017-04-29T12:11:44.461Z,155
2017-04-29T12:12:14.978Z,155
2017-04-29T12:13:14.970Z,160
2017-04-29T12:14:29.916Z,165
2017-04-29T12:15:15.322Z,165
2017-04-29T12:16:15.042Z,170
2017-04-29T12:17:29.983Z,175
2017-04-29T12:19:15.114Z,175
2017-04-29T12:20:30.062Z,180
2017-04-29T12:21:15.460Z,180
2017-04-29T12:22:14.890Z,185
2017-04-29T12:23:15.511Z,185
2017-04-29T12:24:15.233Z,185
2017-04-29T12:25:15.565Z,190
2017-04-29T12:26:15.586Z,190
2017-04-29T12:27:44.844Z,195
2017-04-29T12:28:15.332Z,195
2017-04-29T12:29:15.357Z,200
2017-04-29T12:30:15.113Z,200
2017-04-29T12:31:30.015Z,205
2017-04-29T12:32:44.663Z,205
2017-04-29T12:33:30.365Z,205
2017-04-29T12:34:15.169Z,205
2017-04-29T12:35:15.492Z,205
2017-04-29T12:36:15.823Z,200
2017-04-29T12:37:15.852Z,200
2017-04-29T12:38:15.570Z,200
2017-04-29T12:39:15.593Z,200
2017-04-29T12:40:15.310Z,200
2017-04-29T12:41:15.638Z,200
2017-04-29T12:42:15.966Z,245
2017-04-29T12:43:30.614Z,245
2017-04-29T12:44:30.633Z,245
2017-04-29T12:45:30.675Z,210
2017-04-29T12:47:16.086Z,195
2017-04-29T12:48:15.808Z,190
2017-04-29T12:49:16.137Z,180
2017-04-29T12:51:16.178Z,165
2017-04-29T12:52:15.902Z,160
2017-04-29T12:53:16.233Z,155
2017-04-29T12:54:15.967Z,150
2017-04-29T12:55:16.275Z,150
2017-04-29T12:56:16.302Z,145
2017-04-29T12:57:30.940Z,145
2017-04-29T12:58:16.047Z,140
2017-04-29T12:59:30.991Z,140
2017-04-29T13:00:45.643Z,135
2017-04-29T13:01:16.420Z,135
2017-04-29T13:02:16.442Z,140
2017-04-29T13:03:16.470Z,140
2017-04-29T13:04:31.107Z,140
2017-04-29T13:05:16.215Z,140
2017-04-29T13:06:16.540Z,140
2017-04-29T13:07:16.560Z,140
2017-04-29T13:09:16.614Z,145
2017-04-29T13:10:16.329Z,145
2017-04-29T13:11:16.659Z,145
2017-04-29T13:12:30.995Z,145
2017-04-29T13:13:16.710Z,145
2017-04-29T13:14:16.729Z,150
2017-04-29T13:15:31.067Z,145
2017-04-29T13:16:16.775Z,145
2017-04-29T13:17:16.800Z,150
2017-04-29T13:18:16.835Z,150
2017-04-29T13:19:16.851Z,155
2017-04-29T13:21:16.890Z,170
2017-04-29T13:22:16.616Z,165
2017-04-29T13:23:16.947Z,165
2017-04-29T13:24:16.371Z,165
2017-04-29T13:26:16.716Z,175
2017-04-29T13:27:16.734Z,185
2017-04-29T13:28:31.684Z,170
2017-04-29T13:29:16.479Z,190
2017-04-29T13:30:16.506Z,235
2017-04-29T13:31:16.533Z,235
2017-04-29T13:32:31.166Z,230
2017-04-29T13:33:31.795Z,230
2017-04-29T13:34:17.209Z,225
2017-04-29T13:35:16.926Z,225
2017-04-29T13:36:31.862Z,155
2017-04-29T13:38:17.297Z,180
2017-04-29T13:39:17.019Z,220
2017-04-29T13:41:31.990Z,155
2017-04-29T13:42:16.797Z,150
2017-04-29T13:43:17.111Z,150
2017-04-29T13:44:17.441Z,140
2017-04-29T13:45:17.161Z,135
2017-04-29T13:46:31.800Z,125
2017-04-29T13:47:17.206Z,115
2017-04-29T13:48:17.541Z,115
2017-04-29T13:49:31.872Z,110
2017-04-29T13:50:17.274Z,110
2017-04-29T13:51:32.253Z,105
2017-04-29T13:53:17.654Z,100
2017-04-29T13:54:17.072Z,105
2017-04-29T13:56:17.416Z,120
2017-04-29T13:57:17.749Z,125
2017-04-29T13:58:17.469Z,135
2017-04-29T13:59:17.793Z,140
2017-04-29T14:00:17.514Z,145
2017-04-29T14:01:31.848Z,145
2017-04-29T14:02:17.253Z,150
2017-04-29T14:03:32.506Z,145
2017-04-29T14:04:32.241Z,145
2017-04-29T14:05:17.325Z,145
2017-04-29T14:06:17.656Z,140
2017-04-29T14:07:32.598Z,130
2017-04-29T14:08:18.005Z,120
2017-04-29T14:09:17.725Z,110
2017-04-29T14:11:17.471Z,105
2017-04-29T14:12:18.102Z,95
2017-04-29T14:13:17.515Z,90
2017-04-29T14:14:18.153Z,85
2017-04-29T14:16:17.887Z,75
2017-04-29T14:17:17.909Z,70
2017-04-29T14:18:32.853Z,65
2017-04-29T14:19:32.877Z,65
2017-04-29T14:20:32.896Z,60
2017-04-29T14:21:17.700Z,60
2017-04-29T14:22:18.332Z,60
2017-04-29T14:23:18.351Z,60
2017-04-29T14:24:17.767Z,60
2017-04-29T14:25:18.395Z,55
2017-04-29T14:26:18.423Z,55
2017-04-29T14:27:18.444Z,55
2017-04-29T14:28:18.466Z,60
2017-04-29T14:29:33.108Z,70
2017-04-29T14:30:18.511Z,80
2017-04-29T14:31:18.228Z,85
2017-04-29T14:32:18.252Z,95
2017-04-29T14:33:32.897Z,100
2017-04-29T14:34:33.222Z,100
2017-04-29T14:35:17.713Z,95
2017-04-29T14:36:17.741Z,95
2017-04-29T14:37:18.673Z,90
2017-04-29T14:39:33.033Z,75
2017-04-29T14:40:18.768Z,70
2017-04-29T14:41:18.760Z,65
2017-04-29T14:42:18.786Z,55
2017-04-29T14:43:18.511Z,55
2017-04-29T14:44:18.540Z,55
2017-04-29T14:45:18.852Z,55
2017-04-29T14:46:18.568Z,60
2017-04-29T14:47:18.598Z,70
2017-04-29T14:48:33.536Z,85
2017-04-29T14:49:18.942Z,90
2017-04-29T14:50:18.968Z,115
2017-04-29T14:51:33.604Z,135
2017-04-29T14:52:19.042Z,135
2017-04-29T14:53:18.732Z,140
2017-04-29T14:54:33.671Z,130
2017-04-29T14:55:33.692Z,130
2017-04-29T14:56:19.098Z,130
2017-04-29T14:57:19.120Z,135
2017-04-29T14:58:33.764Z,135
2017-04-29T14:59:18.877Z,135
2017-04-29T15:00:18.887Z,135
2017-04-29T15:01:19.210Z,130
2017-04-29T15:02:18.932Z,130
2017-04-29T15:03:19.260Z,130
2017-04-29T15:04:19.292Z,130
2017-04-29T15:05:19.297Z,130
2017-04-29T15:06:19.320Z,125
2017-04-29T15:07:19.343Z,125
2017-04-29T15:08:33.713Z,125
2017-04-29T15:09:19.098Z,125
2017-04-29T15:10:19.418Z,120
2017-04-29T15:11:34.051Z,125
2017-04-29T15:12:19.454Z,125
2017-04-29T15:14:19.533Z,120
2017-04-29T15:15:33.842Z,120
2017-04-29T15:16:34.163Z,120
2017-04-29T15:17:19.265Z,115
2017-04-29T15:18:33.905Z,125
2017-04-29T15:19:19.622Z,120
2017-04-29T15:20:19.633Z,115
2017-04-29T15:21:19.658Z,120
2017-04-29T15:22:19.374Z,115